Time;durP1;ratioP1;P1;durP2;ratioP2;P2;SDS_P1;SDS_P2;PMS_P1;PMS_P2;Temp;Humidity;BMP_temperature;BMP_pressure;BME280_temperature;BME280_humidity;BME280_pressure;Samples;Min_cycle;Max_cycle;Signal;HPM_P1;HPM_P2
2022/06/11 00:00:50;;;;;;;16.20;9.85;;;;;;;16.49;100.00;63701.97;5057412;28;20259;-78
2022/06/11 00:03:18;;;;;;;16.85;10.07;;;;;;;16.48;100.00;63703.50;5074294;28;20208;-78
2022/06/11 00:05:46;;;;;;;11.77;9.35;;;;;;;16.47;100.00;63699.88;5067598;28;20245;-78
2022/06/11 00:08:13;;;;;;;12.70;8.88;;;;;;;16.52;100.00;63702.50;5052028;28;20231;-79
2022/06/11 00:10:40;;;;;;;10.93;9.05;;;;;;;16.54;100.00;63707.69;5069765;28;20220;-79
2022/06/11 00:13:07;;;;;;;12.57;8.98;;;;;;;16.52;100.00;63702.50;5077450;28;20189;-80
2022/06/11 00:15:35;;;;;;;10.57;9.10;;;;;;;16.57;100.00;63705.13;5077711;28;20204;-79
2022/06/11 00:18:04;;;;;;;10.30;8.55;;;;;;;16.63;100.00;63717.06;5070695;28;20523;-80
2022/06/11 00:20:32;;;;;;;8.50;7.70;;;;;;;16.63;100.00;63711.38;5078498;28;20275;-79
2022/06/11 00:23:01;;;;;;;13.35;8.52;;;;;;;16.58;100.00;63713.91;5068913;28;20403;-80
2022/06/11 00:25:28;;;;;;;9.50;8.55;;;;;;;16.54;100.00;63710.25;5075582;28;20575;-80
2022/06/11 00:27:55;;;;;;;10.10;8.88;;;;;;;16.51;100.00;63709.19;5072342;28;20256;-79
2022/06/11 00:30:22;;;;;;;12.15;8.98;;;;;;;16.45;100.00;63700.34;5073149;28;20588;-79
2022/06/11 00:32:49;;;;;;;10.00;9.00;;;;;;;16.50;100.00;63708.66;5071705;28;20197;-79
2022/06/11 00:35:16;;;;;;;13.40;9.77;;;;;;;16.49;100.00;63701.97;5069889;28;20233;-80
2022/06/11 00:37:44;;;;;;;14.90;9.85;;;;;;;16.56;100.00;63709.75;5062407;28;20648;-78
2022/06/11 00:40:15;;;;;;;9.93;8.93;;;;;;;16.56;100.00;63707.19;5066368;28;20229;-78
2022/06/11 00:42:42;;;;;;;12.73;9.27;;;;;;;16.48;100.00;63698.84;5066802;28;20201;-76
2022/06/11 00:45:33;;;;;;;12.75;9.63;;;;;;;16.48;100.00;63703.50;5051884;28;20220;-77
2022/06/11 00:48:03;;;;;;;17.95;8.38;;;;;;;16.34;100.00;63686.34;5064407;28;20212;-76
2022/06/11 00:50:37;;;;;;;8.05;7.25;;;;;;;16.18;100.00;63670.22;5062567;28;20526;-76
2022/06/11 00:53:11;;;;;;;7.22;6.47;;;;;;;16.19;100.00;63674.34;5055370;28;20202;-77
2022/06/11 00:55:42;;;;;;;11.13;7.78;;;;;;;16.21;100.00;63670.75;5045298;28;20244;-75
2022/06/11 00:58:13;;;;;;;10.75;7.75;;;;;;;16.26;100.00;63678.53;5045870;28;20220;-77
2022/06/11 01:00:44;;;;;;;16.13;7.85;;;;;;;16.20;100.00;63670.22;5054968;28;20208;-76
2022/06/11 01:03:13;;;;;;;11.00;7.57;;;;;;;16.10;100.00;63654.69;5063664;28;20196;-77
2022/06/11 01:05:45;;;;;;;8.00;7.22;;;;;;;16.03;100.00;63652.56;5064255;28;20247;-77
2022/06/11 01:08:41;;;;;;;10.27;7.32;;;;;;;16.15;100.00;63667.09;5065365;28;20372;-77
2022/06/11 01:11:41;;;;;;;9.68;7.20;;;;;;;16.13;100.00;63662.94;5048694;28;20218;-77
2022/06/11 01:14:23;;;;;;;18.45;8.27;;;;;;;16.05;100.00;63656.69;5059457;28;20209;-78
2022/06/11 01:17:01;;;;;;;8.98;7.35;;;;;;;16.04;100.00;63656.19;5070254;28;20201;-77
2022/06/11 01:20:18;;;;;;;16.02;8.32;;;;;;;16.08;100.00;63657.25;5062004;28;20258;-77
2022/06/11 01:23:26;;;;;;;11.73;8.48;;;;;;;16.15;100.00;63667.09;5058697;28;20205;-77
2022/06/11 01:26:07;;;;;;;10.50;7.72;;;;;;;16.04;100.00;63655.66;5045968;28;20225;-78
2022/06/11 01:28:50;;;;;;;12.38;8.93;;;;;;;16.07;100.00;63659.28;5059191;28;20219;-78
2022/06/11 01:31:23;;;;;;;10.43;8.30;;;;;;;15.99;100.00;63650.44;5061183;28;20224;-76
2022/06/11 01:33:58;;;;;;;10.77;7.80;;;;;;;16.01;100.00;63650.47;5065326;28;20189;-78
2022/06/11 01:36:29;;;;;;;10.80;8.90;;;;;;;15.97;100.00;63646.31;5062151;28;20200;-78
2022/06/11 01:39:02;;;;;;;9.65;8.10;;;;;;;15.88;100.00;63636.44;5046021;28;20192;-77
2022/06/11 01:41:37;;;;;;;12.18;9.43;;;;;;;15.96;100.00;63647.34;5061340;28;20203;-79
2022/06/11 01:44:06;;;;;;;10.63;8.68;;;;;;;15.94;100.00;63645.78;5066035;28;20201;-78
2022/06/11 01:46:37;;;;;;;15.35;9.55;;;;;;;16.01;100.00;63650.47;5065243;28;20209;-78
2022/06/11 01:49:07;;;;;;;12.48;7.95;;;;;;;16.02;100.00;63651.00;5066435;28;20213;-78
2022/06/11 01:51:48;;;;;;;9.65;8.38;;;;;;;16.00;100.00;63654.06;5051995;28;20201;-78
2022/06/11 01:54:33;;;;;;;9.23;8.23;;;;;;;16.02;100.00;63653.56;5051316;28;20657;-78
2022/06/11 01:57:21;;;;;;;9.27;8.35;;;;;;;16.02;100.00;63654.09;5061199;28;20498;-79
2022/06/11 02:00:10;;;;;;;10.85;8.70;;;;;;;16.05;100.00;63654.63;5046936;28;20264;-78
2022/06/11 02:03:09;;;;;;;9.10;7.68;;;;;;;16.04;100.00;63653.59;5046424;28;20219;-77
2022/06/11 02:05:49;;;;;;;9.65;8.32;;;;;;;16.01;100.00;63652.53;5050903;28;20271;-77
2022/06/11 02:08:23;;;;;;;10.38;8.35;;;;;;;15.87;100.00;63637.97;5057112;28;20211;-78
2022/06/11 02:11:04;;;;;;;9.57;8.38;;;;;;;15.86;100.00;63636.91;5057136;28;20208;-78
2022/06/11 02:13:39;;;;;;;10.93;8.82;;;;;;;15.97;100.00;63648.38;5055067;28;20197;-78
2022/06/11 02:16:13;;;;;;;10.75;8.77;;;;;;;16.06;100.00;63653.13;5052027;28;20225;-78
2022/06/11 02:18:42;;;;;;;9.45;8.45;;;;;;;16.05;100.00;63657.22;5063041;28;20504;-78
2022/06/11 02:21:14;;;;;;;9.27;8.10;;;;;;;15.91;100.00;63642.13;5064865;28;20216;-78
2022/06/11 02:23:47;;;;;;;9.90;8.10;;;;;;;15.88;100.00;63642.09;5062771;28;20196;-78
2022/06/11 02:26:19;;;;;;;8.90;7.88;;;;;;;15.94;100.00;63645.78;5060171;28;20523;-77
2022/06/11 02:28:48;;;;;;;8.38;7.55;;;;;;;15.89;100.00;63642.63;5063084;28;20603;-77
2022/06/11 02:31:18;;;;;;;9.65;8.23;;;;;;;15.91;100.00;63639.56;5065948;28;20205;-78
2022/06/11 02:33:46;;;;;;;9.27;8.27;;;;;;;15.97;100.00;63645.81;5063030;28;20192;-77
2022/06/11 02:36:21;;;;;;;8.98;8.05;;;;;;;15.97;100.00;63651.47;5063912;28;20200;-77
2022/06/11 02:38:48;;;;;;;9.48;8.40;;;;;;;16.02;100.00;63653.56;5047654;28;20197;-77
2022/06/11 02:41:19;;;;;;;9.15;8.20;;;;;;;16.06;100.00;63657.72;5044702;28;20253;-77
2022/06/11 02:43:47;;;;;;;8.70;7.90;;;;;;;16.08;100.00;63664.97;5053385;28;20223;-77
2022/06/11 02:49:00;;;;;;;9.80;8.45;;;;;;;15.73;100.00;63618.81;5052026;28;20247;-80
2022/06/11 02:51:30;;;;;;;10.02;8.65;;;;;;;15.75;100.00;63628.06;5050534;28;20232;-79
2022/06/11 02:53:58;;;;;;;9.05;8.02;;;;;;;15.82;100.00;63630.75;5063645;28;20243;-79
2022/06/11 02:56:25;;;;;;;9.23;8.23;;;;;;;15.74;100.00;63622.41;5063448;28;20343;-78
2022/06/11 02:58:52;;;;;;;11.13;8.30;;;;;;;15.70;100.00;63617.72;5047103;28;20198;-78
2022/06/11 03:01:21;;;;;;;10.85;9.13;;;;;;;15.65;100.00;63615.59;5051738;28;20201;-78
2022/06/11 03:03:49;;;;;;;12.73;8.00;;;;;;;15.70;100.00;63625.94;5064750;28;20446;-78
2022/06/11 03:06:16;;;;;;;14.90;7.63;;;;;;;15.76;100.00;63623.97;5062671;28;20239;-77
2022/06/11 03:08:45;;;;;;;18.50;9.00;;;;;;;15.72;100.00;63622.88;5062111;28;20259;-78
2022/06/11 03:11:12;;;;;;;8.57;6.95;;;;;;;15.75;100.00;63628.59;5057877;28;20220;-77
2022/06/11 03:13:39;;;;;;;8.38;7.50;;;;;;;15.81;100.00;63631.72;5064691;28;20506;-77
2022/06/11 03:16:07;;;;;;;8.88;7.70;;;;;;;15.81;100.00;63631.72;5058787;28;20228;-77
2022/06/11 03:18:34;;;;;;;8.98;7.47;;;;;;;15.81;100.00;63632.25;5065894;28;20387;-77
2022/06/11 03:21:01;;;;;;;8.82;7.93;;;;;;;15.82;100.00;63638.44;5062026;28;20236;-78
2022/06/11 03:23:29;;;;;;;7.93;7.13;;;;;;;15.85;100.00;63635.88;5063822;28;20509;-77
2022/06/11 03:25:59;;;;;;;7.63;6.85;;;;;;;15.79;100.00;63627.59;5063986;28;20225;-77
2022/06/11 03:28:28;;;;;;;8.43;7.53;;;;;;;15.79;100.00;63632.22;5060053;28;20203;-76
2022/06/11 03:30:56;;;;;;;8.50;7.60;;;;;;;15.85;100.00;63630.75;5059200;28;20233;-78
2022/06/11 03:33:24;;;;;;;7.97;6.97;;;;;;;15.81;100.00;63634.28;5061780;28;20258;-78
2022/06/11 03:35:52;;;;;;;11.05;7.03;;;;;;;15.76;100.00;63627.06;5044802;28;20217;-78
2022/06/11 03:38:21;;;;;;;8.45;7.10;;;;;;;15.77;100.00;63628.09;5050501;28;20238;-78
2022/06/11 03:40:48;;;;;;;8.57;7.00;;;;;;;15.81;100.00;63629.69;5063041;28;20221;-78
2022/06/11 03:43:16;;;;;;;14.27;10.30;;;;;;;15.89;100.00;63640.56;5059196;28;20198;-78
2022/06/11 03:45:44;;;;;;;15.02;11.48;;;;;;;15.95;100.00;63644.25;5043305;28;20229;-78
2022/06/11 03:48:12;;;;;;;16.23;11.93;;;;;;;16.06;100.00;63655.16;5058959;28;20232;-79
2022/06/11 03:50:40;;;;;;;13.60;10.43;;;;;;;16.11;100.00;63660.88;5065669;28;20271;-78
2022/06/11 03:53:10;;;;;;;20.23;10.20;;;;;;;16.13;100.00;63665.00;5047532;28;20449;-81
2022/06/11 03:55:38;;;;;;;10.95;8.60;;;;;;;16.24;100.00;63673.38;5052071;28;20293;-79
2022/06/11 03:58:06;;;;;;;14.32;9.80;;;;;;;16.25;100.00;63674.94;5070688;28;20201;-78
2022/06/11 04:03:23;;;;;;;10.55;8.40;;;;;;;16.23;100.00;63670.28;5070063;28;20223;-77
2022/06/11 04:05:52;;;;;;;10.73;6.90;;;;;;;16.24;100.00;63675.94;5066804;28;20225;-79
2022/06/11 04:08:22;;;;;;;7.70;6.95;;;;;;;16.18;100.00;63670.75;5066582;28;20228;-78
2022/06/11 04:10:49;;;;;;;8.18;7.13;;;;;;;16.17;100.00;63669.69;5070039;28;20406;-77
2022/06/11 04:13:17;;;;;;;8.32;7.47;;;;;;;16.17;100.00;63669.16;5055038;28;20197;-77
2022/06/11 04:15:45;;;;;;;9.00;6.93;;;;;;;16.28;100.00;63685.75;5063885;28;20228;-77
2022/06/11 04:18:22;;;;;;;7.45;6.75;;;;;;;16.26;100.00;63678.00;5065938;28;20197;-76
2022/06/11 04:20:49;;;;;;;10.57;7.75;;;;;;;16.17;100.00;63671.72;5065216;28;20216;-77
2022/06/11 04:23:16;;;;;;;8.68;7.82;;;;;;;16.09;100.00;63663.94;5063721;28;20422;-76
2022/06/11 04:25:45;;;;;;;12.85;9.15;;;;;;;16.10;100.00;63664.47;5060281;28;20263;-75
2022/06/11 04:28:12;;;;;;;12.07;9.48;;;;;;;16.15;100.00;63667.09;5055753;28;20228;-77
2022/06/11 04:30:39;;;;;;;9.25;8.32;;;;;;;16.17;100.00;63671.72;5066596;28;20255;-77
2022/06/11 04:33:08;;;;;;;12.63;9.00;;;;;;;16.03;100.00;63655.13;5057716;28;20239;-78
2022/06/11 04:35:35;;;;;;;11.68;8.30;;;;;;;15.88;100.00;63641.56;5066018;28;20231;-76
2022/06/11 04:38:02;;;;;;;11.43;9.23;;;;;;;15.84;100.00;63632.28;5067239;28;20501;-79
2022/06/11 04:40:29;;;;;;;12.07;9.73;;;;;;;15.86;100.00;63634.88;5067931;28;20220;-78
2022/06/11 04:42:56;;;;;;;16.33;11.35;;;;;;;15.87;100.00;63643.63;5057098;28;20529;-78
2022/06/11 04:45:22;;;;;;;16.25;11.75;;;;;;;15.99;100.00;63648.41;5061364;28;20231;-77
2022/06/11 04:47:49;;;;;;;16.65;10.82;;;;;;;15.87;100.00;63637.97;5065824;28;20205;-77
2022/06/11 04:50:19;;;;;;;13.35;10.63;;;;;;;16.03;100.00;63655.13;5050788;28;21803;-78
2022/06/11 04:52:46;;;;;;;12.23;10.23;;;;;;;16.03;100.00;63654.63;5067618;28;20202;-77
2022/06/11 04:55:14;;;;;;;11.73;9.25;;;;;;;15.93;100.00;63644.19;5062536;28;20221;-77
2022/06/11 04:57:41;;;;;;;14.05;10.02;;;;;;;15.86;100.00;63634.34;5066369;28;20228;-77
2022/06/11 05:00:09;;;;;;;13.07;9.68;;;;;;;15.99;100.00;63650.44;5055687;28;20267;-77
2022/06/11 05:02:37;;;;;;;12.40;9.82;;;;;;;16.16;100.00;63668.13;5053628;28;20220;-77
2022/06/11 05:05:06;;;;;;;11.35;9.25;;;;;;;16.35;100.00;63687.91;5070923;28;20213;-76
2022/06/11 05:07:35;;;;;;;12.25;9.32;;;;;;;16.31;100.00;63685.78;5065464;28;20192;-77
2022/06/11 05:10:02;;;;;;;12.38;9.13;;;;;;;16.11;100.00;63665.50;5058733;28;20229;-76
2022/06/11 05:12:29;;;;;;;11.18;9.38;;;;;;;16.11;100.00;63668.06;5061951;28;20204;-76
2022/06/11 05:14:56;;;;;;;12.15;9.13;;;;;;;16.30;100.00;63682.69;5060314;28;20271;-77
2022/06/11 05:17:23;;;;;;;11.18;8.80;;;;;;;16.06;100.00;63658.25;5061176;28;20242;-78
2022/06/11 05:19:50;;;;;;;11.82;9.68;;;;;;;16.19;100.00;63671.25;5059834;28;20592;-78
2022/06/11 05:22:17;;;;;;;14.43;9.35;;;;;;;16.13;100.00;63667.59;5064135;28;20277;-77
2022/06/11 05:24:45;;;;;;;10.93;8.80;;;;;;;16.29;100.00;63678.56;5061782;28;20217;-77
2022/06/11 05:27:17;;;;;;;11.27;8.52;;;;;;;16.47;100.00;63702.97;5060463;28;20208;-77
2022/06/11 05:29:49;;;;;;;12.15;8.98;;;;;;;16.60;100.00;63710.84;5056236;28;20264;-77
2022/06/11 05:32:16;;;;;;;9.80;8.40;;;;;;;16.73;100.00;63730.03;5065823;28;20196;-77
2022/06/11 05:34:45;;;;;;;8.40;7.47;;;;;;;16.79;100.00;63733.69;5060440;28;20244;-76
2022/06/11 05:37:13;;;;;;;8.38;7.13;;;;;;;16.83;100.00;63734.75;5062968;28;20405;-77
2022/06/11 05:39:41;;;;;;;8.60;7.60;;;;;;;16.71;100.00;63727.94;5056161;28;20548;-76
2022/06/11 05:42:10;;;;;;;8.80;7.38;;;;;;;16.75;100.00;63729.00;5047724;28;20217;-77
2022/06/11 05:44:37;;;;;;;6.90;6.30;;;;;;;16.83;100.00;63737.84;5046167;28;20278;-76
2022/06/11 05:47:06;;;;;;;7.13;5.95;;;;;;;16.88;100.00;63743.06;5044369;28;20205;-76
2022/06/11 05:49:37;;;;;;;6.47;5.28;;;;;;;17.01;100.00;63753.50;5049945;28;20258;-77
2022/06/11 05:52:08;;;;;;;5.07;4.75;;;;;;;17.01;100.00;63759.16;5064000;28;20263;-77
2022/06/11 05:54:37;;;;;;;4.72;4.32;;;;;;;17.04;100.00;63759.19;5062249;28;20239;-76
2022/06/11 05:57:05;;;;;;;5.82;5.45;;;;;;;16.72;100.00;63723.81;5061435;28;20247;-77
2022/06/11 05:59:38;;;;;;;4.20;3.90;;;;;;;16.56;100.00;63712.34;5045132;28;20221;-76
2022/06/11 06:02:10;;;;;;;5.32;4.93;;;;;;;16.56;100.00;63709.25;5049119;28;20235;-76
2022/06/11 06:04:37;;;;;;;5.05;4.65;;;;;;;16.50;100.00;63706.09;5049907;28;20232;-76
2022/06/11 06:07:05;;;;;;;5.45;4.75;;;;;;;16.45;100.00;63695.19;5051109;28;20201;-74
2022/06/11 06:09:32;;;;;;;9.45;4.88;;;;;;;16.54;100.00;63707.69;5062371;28;20468;-76
2022/06/11 06:12:00;;;;;;;6.05;5.35;;;;;;;16.73;100.00;63727.44;5048620;28;20200;-75
2022/06/11 06:14:27;;;;;;;5.30;4.90;;;;;;;16.76;100.00;63733.13;5063542;28;20227;-77
2022/06/11 06:16:55;;;;;;;5.03;4.57;;;;;;;16.90;100.00;63745.13;5061366;28;20197;-76
2022/06/11 06:19:22;;;;;;;5.75;4.47;;;;;;;16.99;100.00;63757.09;5058854;28;20225;-76
2022/06/11 06:21:50;;;;;;;4.45;4.15;;;;;;;17.10;100.00;63765.94;5061780;28;20213;-77
2022/06/11 06:24:16;;;;;;;5.18;4.70;;;;;;;17.23;100.00;63782.06;5060496;28;20434;-76
2022/06/11 06:26:44;;;;;;;5.50;5.00;;;;;;;17.32;100.00;63791.41;5056099;28;20291;-76
2022/06/11 06:29:11;;;;;;;6.13;5.63;;;;;;;17.23;100.00;63781.53;5064443;28;20216;-76
2022/06/11 06:31:39;;;;;;;6.30;5.70;;;;;;;17.38;100.00;63796.66;5062173;28;20232;-76
2022/06/11 06:34:09;;;;;;;5.60;5.20;;;;;;;17.22;100.00;63780.50;5064203;28;20189;-76
2022/06/11 06:36:38;;;;;;;5.38;4.88;;;;;;;17.05;100.00;63765.38;5067621;28;20203;-75
2022/06/11 06:39:05;;;;;;;5.63;5.15;;;;;;;17.14;100.00;63772.16;5057327;28;20201;-76
2022/06/11 06:41:32;;;;;;;4.68;4.28;;;;;;;17.02;100.00;63752.47;5054089;28;20202;-75
2022/06/11 06:44:02;;;;;;;4.35;4.05;;;;;;;16.95;100.00;63747.78;5048096;28;20205;-79
2022/06/11 06:46:29;;;;;;;3.40;3.20;;;;;;;16.73;100.00;63726.94;5052084;28;20209;-78
2022/06/11 06:49:00;;;;;;;4.20;3.80;;;;;;;16.63;100.00;63711.91;5059406;28;20472;-79
2022/06/11 06:51:30;;;;;;;4.13;3.67;;;;;;;16.66;100.00;63722.22;5064548;28;20260;-79
2022/06/11 06:53:59;;;;;;;3.47;3.17;;;;;;;16.51;100.00;63707.13;5048107;28;20253;-78
2022/06/11 06:56:29;;;;;;;4.30;3.15;;;;;;;16.72;100.00;63728.97;5058118;28;20212;-77
2022/06/11 06:58:58;;;;;;;4.30;3.80;;;;;;;16.82;100.00;63731.16;5060079;28;20209;-77
2022/06/11 07:01:26;;;;;;;3.90;3.47;;;;;;;16.89;100.00;63744.09;5063275;28;20200;-78
2022/06/11 07:03:53;;;;;;;3.03;2.75;;;;;;;16.78;100.00;63732.13;5062150;28;20202;-78
2022/06/11 07:06:22;;;;;;;2.70;2.50;;;;;;;16.75;100.00;63731.59;5062235;28;20211;-80
2022/06/11 07:08:52;;;;;;;2.63;2.42;;;;;;;16.87;100.00;63744.59;5066814;28;20208;-80
2022/06/11 07:11:20;;;;;;;3.00;2.80;;;;;;;16.86;100.00;63740.97;5057963;28;20232;-79
2022/06/11 07:13:50;;;;;;;2.80;2.70;;;;;;;17.12;100.00;63767.50;5049562;28;20205;-78
2022/06/11 07:16:23;;;;;;;3.28;3.08;;;;;;;17.10;100.00;63762.88;5068002;28;20208;-78
2022/06/11 07:18:54;;;;;;;3.00;2.80;;;;;;;17.18;100.00;63773.75;5062706;28;20220;-77
2022/06/11 07:21:29;;;;;;;3.33;3.13;;;;;;;17.21;100.00;63774.31;5058894;28;20512;-79
2022/06/11 07:24:01;;;;;;;4.53;3.22;;;;;;;17.32;100.00;63791.41;5059706;28;20205;-77
2022/06/11 07:26:34;;;;;;;3.70;3.30;;;;;;;17.60;100.00;63814.91;5069551;28;20268;-80
2022/06/11 07:29:09;;;;;;;8.98;3.53;;;;;;;17.63;100.00;63820.13;5068265;28;20276;-81
2022/06/11 07:31:42;;;;;;;5.00;3.53;;;;;;;17.81;100.00;63834.22;5069230;28;20273;-77
2022/06/11 07:34:09;;;;;;;3.17;2.95;;;;;;;17.79;100.00;63837.28;5056811;28;20217;-82
2022/06/11 07:36:37;;;;;;;3.03;2.83;;;;;;;17.60;100.00;63819.56;5068138;28;20276;-79
2022/06/11 07:39:06;;;;;;;2.75;2.65;;;;;;;17.55;100.00;63814.38;5057192;28;20231;-78
2022/06/11 07:41:34;;;;;;;3.60;2.90;;;;;;;17.52;100.00;63806.59;5069210;28;20230;-78
2022/06/11 07:44:01;;;;;;;3.03;2.88;;;;;;;17.95;100.00;63853.44;5066798;28;20271;-78
2022/06/11 07:46:28;;;;;;;3.90;3.55;;;;;;;17.90;100.00;63848.75;5062102;28;20216;-81
2022/06/11 07:48:58;;;;;;;3.50;3.30;;;;;;;17.89;100.00;63850.28;5063424;28;20223;-78
2022/06/11 07:51:29;;;;;;;3.90;3.70;;;;;;;18.28;100.00;63890.38;5062797;28;20224;-78
2022/06/11 07:53:57;;;;;;;4.30;3.97;;;;;;;18.32;100.00;63895.09;5066110;28;20239;-80
2022/06/11 07:56:25;;;;;;;7.47;4.50;;;;;;;18.54;100.00;63916.97;5062070;28;20209;-77
2022/06/11 07:58:53;;;;;;;4.25;3.80;;;;;;;18.75;100.00;63939.41;5067287;28;20207;-78
2022/06/11 08:01:20;;;;;;;3.50;3.30;;;;;;;19.00;100.00;63962.34;5059244;28;20256;-77
2022/06/11 08:03:47;;;;;;;4.18;3.88;;;;;;;19.44;100.00;64013.94;5060779;28;20212;-77
2022/06/11 08:06:14;;;;;;;4.30;4.03;;;;;;;19.58;100.00;64019.75;5065824;28;20193;-76
2022/06/11 08:08:41;;;;;;;3.63;3.33;;;;;;;20.21;100.00;64091.19;5061310;28;20564;-76
2022/06/11 08:11:08;;;;;;;3.22;3.08;;;;;;;20.70;100.00;64134.03;5062579;28;20247;-77
2022/06/11 08:13:37;;;;;;;4.95;4.15;;;;;;;20.99;100.00;64171.56;5061590;28;20517;-77
2022/06/11 08:16:05;;;;;;;4.07;3.80;;;;;;;21.32;100.00;64198.78;5065749;28;20224;-77
2022/06/11 08:18:33;;;;;;;3.92;3.72;;;;;;;21.58;100.00;64230.59;5063912;28;20368;-77
2022/06/11 08:21:00;;;;;;;3.65;3.45;;;;;;;21.33;100.00;64205.00;5061192;28;20217;-78
2022/06/11 08:23:28;;;;;;;3.90;3.25;;;;;;;21.20;100.00;64191.44;5064685;28;20509;-77
2022/06/11 08:25:55;;;;;;;3.50;3.40;;;;;;;21.67;100.00;64240.00;5063017;28;20295;-77
2022/06/11 08:28:23;;;;;;;3.38;3.17;;;;;;;21.90;100.00;64264.06;5063081;28;20225;-78
2022/06/11 08:30:52;;;;;;;3.40;3.10;;;;;;;21.48;100.00;64225.34;5061668;28;20232;-77
2022/06/11 08:33:19;;;;;;;3.58;3.33;;;;;;;21.81;100.00;64254.66;5065808;28;20189;-78
2022/06/11 08:35:47;;;;;;;3.00;2.80;;;;;;;22.00;100.00;64276.59;5066346;28;20227;-77
2022/06/11 08:38:14;;;;;;;2.90;2.70;;;;;;;21.84;95.51;64260.38;5053628;28;20221;-77
2022/06/11 08:40:44;;;;;;;3.00;2.75;;;;;;;21.38;100.00;64209.72;5065614;28;20217;-76
2022/06/11 08:43:22;;;;;;;3.25;3.05;;;;;;;20.93;100.00;64168.41;5066259;28;20252;-76
2022/06/11 08:45:53;;;;;;;2.83;2.72;;;;;;;20.68;99.15;64140.25;5054279;28;20228;-77
2022/06/11 08:48:35;;;;;;;3.35;3.20;;;;;;;20.49;100.00;64123.00;5065129;28;20453;-76
2022/06/11 08:51:14;;;;;;;3.20;3.03;;;;;;;20.22;99.21;64086.53;5065183;28;20452;-77
2022/06/11 08:53:41;;;;;;;3.67;3.47;;;;;;;20.33;100.00;64098.53;5060931;28;20207;-77
2022/06/11 08:56:17;;;;;;;3.53;3.35;;;;;;;20.48;100.00;64116.25;5058671;28;20327;-77
2022/06/11 08:58:56;;;;;;;3.65;3.35;;;;;;;20.81;100.00;64147.59;5065853;28;20226;-77
2022/06/11 09:01:40;;;;;;;3.08;2.88;;;;;;;21.42;100.00;64219.06;5046560;28;20189;-76
2022/06/11 09:04:25;;;;;;;3.10;3.00;;;;;;;20.70;99.41;64136.63;5062542;28;20281;-76
2022/06/11 09:07:10;;;;;;;2.85;2.70;;;;;;;20.61;98.91;64135.53;5066218;28;20201;-79
2022/06/11 09:09:56;;;;;;;3.75;3.55;;;;;;;20.46;100.00;64114.69;5048095;28;20220;-77
2022/06/11 09:12:47;;;;;;;3.70;3.53;;;;;;;19.62;100.00;64023.91;5052666;28;20602;-79
2022/06/11 09:15:27;;;;;;;4.25;3.97;;;;;;;19.23;100.00;63984.28;5021522;28;20236;-77
2022/06/11 09:18:11;;;;;;;4.82;4.00;;;;;;;19.12;100.00;63975.38;5028839;28;20197;-78
2022/06/11 09:20:50;;;;;;;5.05;4.65;;;;;;;18.81;100.00;63940.47;5016568;28;20226;-78
2022/06/11 09:23:32;;;;;;;6.25;4.15;;;;;;;18.97;100.00;63961.81;5024375;28;20301;-77
2022/06/11 09:26:16;;;;;;;4.75;4.45;;;;;;;19.02;100.00;63967.53;5025756;28;20214;-77
2022/06/11 09:28:53;;;;;;;5.15;4.75;;;;;;;19.28;100.00;63991.53;5026446;28;20193;-77
2022/06/11 09:31:28;;;;;;;4.60;4.20;;;;;;;19.49;100.00;64014.00;5020796;28;20244;-77
2022/06/11 09:34:06;;;;;;;4.70;4.30;;;;;;;19.74;100.00;64039.56;5025051;28;20438;-77
2022/06/11 09:36:44;;;;;;;6.22;4.03;;;;;;;19.89;100.00;64057.78;5028280;28;20198;-80
2022/06/11 09:39:36;;;;;;;4.97;4.45;;;;;;;19.66;100.00;64033.78;5021339;28;20218;-80
2022/06/11 09:42:21;;;;;;;4.50;4.10;;;;;;;19.90;100.00;64053.13;5029912;28;20210;-78
2022/06/11 09:44:53;;;;;;;3.72;3.53;;;;;;;19.88;100.00;64053.63;5012109;28;20214;-78
2022/06/11 09:47:29;;;;;;;3.35;3.15;;;;;;;20.37;100.00;64109.94;5010760;28;20207;-79
2022/06/11 09:50:14;;;;;;;3.33;3.13;;;;;;;20.19;100.00;64091.69;5019509;28;20272;-77
2022/06/11 09:52:47;;;;;;;3.75;3.47;;;;;;;20.46;100.00;64114.16;5021205;28;20257;-77
2022/06/11 09:55:27;;;;;;;3.70;3.47;;;;;;;20.16;100.00;64083.38;5026652;28;20249;-78
2022/06/11 09:58:06;;;;;;;3.60;3.30;;;;;;;20.06;100.00;64075.50;5020672;28;20202;-78
2022/06/11 10:00:40;;;;;;;4.32;4.03;;;;;;;19.62;100.00;64023.91;5026622;28;20268;-78
2022/06/11 10:03:22;;;;;;;5.40;4.45;;;;;;;19.21;100.00;63987.34;5020326;28;20237;-78
2022/06/11 10:05:57;;;;;;;5.35;4.93;;;;;;;19.00;100.00;63957.72;5013686;28;20211;-78
2022/06/11 10:08:37;;;;;;;5.28;4.40;;;;;;;18.64;100.00;63927.41;5013021;28;20241;-78
2022/06/11 10:11:06;;;;;;;3.97;3.67;;;;;;;18.56;100.00;63922.16;5022038;28;20246;-78
2022/06/11 10:13:43;;;;;;;4.80;4.30;;;;;;;18.47;100.00;63907.09;5018382;28;20194;-78
2022/06/11 10:16:26;;;;;;;5.28;4.75;;;;;;;18.33;100.00;63893.03;5022052;28;20222;-78
2022/06/11 10:18:55;;;;;;;5.28;4.78;;;;;;;18.21;100.00;63885.69;5023202;28;20221;-78
2022/06/11 10:21:26;;;;;;;6.47;5.90;;;;;;;18.15;100.00;63874.28;5041742;28;20458;-77
2022/06/11 10:24:00;;;;;;;7.78;6.35;;;;;;;18.17;100.00;63876.88;5033316;28;20489;-79
2022/06/11 10:26:31;;;;;;;5.40;5.00;;;;;;;18.29;100.00;63888.88;5024432;28;20204;-78
2022/06/11 10:29:11;;;;;;;6.15;5.65;;;;;;;18.26;100.00;63888.81;5027555;28;20223;-78
2022/06/11 10:31:52;;;;;;;5.63;5.15;;;;;;;18.53;100.00;63916.47;5040438;28;20238;-77
2022/06/11 10:34:22;;;;;;;5.22;4.82;;;;;;;18.57;100.00;63918.03;5025627;28;20260;-78
2022/06/11 10:36:56;;;;;;;4.50;4.20;;;;;;;18.64;100.00;63922.25;5026626;28;20198;-78
2022/06/11 10:39:28;;;;;;;7.15;5.25;;;;;;;18.47;100.00;63907.09;5022864;28;20273;-79
2022/06/11 10:42:06;;;;;;;5.32;4.88;;;;;;;18.45;100.00;63905.53;5028202;28;20226;-79
2022/06/11 10:44:39;;;;;;;4.63;4.22;;;;;;;18.50;100.00;63910.75;5026373;28;20561;-79
2022/06/11 10:47:24;;;;;;;4.60;4.30;;;;;;;18.57;100.00;63920.13;5028483;28;20206;-80
2022/06/11 10:50:01;;;;;;;4.40;4.05;;;;;;;18.51;100.00;63911.81;5030197;28;20232;-81
2022/06/11 10:52:39;;;;;;;4.60;4.20;;;;;;;18.07;100.00;63869.03;5027834;28;20233;-80
2022/06/11 10:55:09;;;;;;;5.03;3.35;;;;;;;17.67;100.00;63822.22;5013638;28;20232;-80
2022/06/11 10:57:38;;;;;;;4.00;3.70;;;;;;;17.22;100.00;63775.34;5011171;28;20187;-80
2022/06/11 11:00:18;;;;;;;9.82;4.32;;;;;;;16.91;100.00;63743.09;5010581;28;20210;-80
2022/06/11 11:02:50;;;;;;;3.33;3.13;;;;;;;16.67;100.00;63723.78;5023940;28;20289;-79
2022/06/11 11:05:19;;;;;;;2.92;2.72;;;;;;;16.57;100.00;63710.28;5034459;28;21138;-80
2022/06/11 11:07:58;;;;;;;3.88;3.67;;;;;;;16.59;100.00;63712.88;5033703;28;20276;-79
2022/06/11 11:10:42;;;;;;;3.47;3.15;;;;;;;16.67;100.00;63720.69;5022851;28;20244;-78
2022/06/11 11:13:18;;;;;;;3.28;3.05;;;;;;;16.84;100.00;63738.88;5046889;28;20217;-77
2022/06/11 11:15:55;;;;;;;3.40;3.20;;;;;;;17.02;100.00;63754.53;5038346;28;20225;-77
2022/06/11 11:18:25;;;;;;;6.15;3.85;;;;;;;17.25;100.00;63781.06;5026784;28;20357;-78
2022/06/11 11:20:56;;;;;;;7.82;3.53;;;;;;;17.27;100.00;63783.66;5023061;28;20233;-78
2022/06/11 11:23:29;;;;;;;3.05;2.75;;;;;;;17.41;100.00;63795.13;5030841;28;20464;-79
2022/06/11 11:26:02;;;;;;;3.00;2.80;;;;;;;17.57;100.00;63813.88;5028935;28;20369;-78
2022/06/11 11:28:31;;;;;;;4.07;3.15;;;;;;;17.63;100.00;63817.53;5030643;28;20204;-78
2022/06/11 11:31:03;;;;;;;3.55;3.35;;;;;;;17.90;100.00;63853.38;5010701;28;20257;-78
2022/06/11 11:33:32;;;;;;;2.30;2.17;;;;;;;18.02;100.00;63856.09;5027660;28;20221;-77
2022/06/11 11:36:15;;;;;;;2.65;2.55;;;;;;;18.22;100.00;63881.56;5029012;28;20218;-77
2022/06/11 11:38:44;;;;;;;2.65;2.55;;;;;;;18.24;100.00;63884.16;5024047;28;20205;-78
2022/06/11 11:41:26;;;;;;;2.08;1.98;;;;;;;18.40;100.00;63898.28;5027069;28;20220;-77
2022/06/11 11:43:57;;;;;;;3.05;2.40;;;;;;;18.73;100.00;63934.19;5029357;28;20186;-78
2022/06/11 11:46:26;;;;;;;2.20;2.10;;;;;;;18.96;100.00;63956.13;5028739;28;20237;-76
2022/06/11 11:48:56;;;;;;;2.53;1.90;;;;;;;18.89;100.00;63950.88;5025781;28;20265;-77